createdAt,value
2022-10-13T00:03:03.592Z,18.12
2022-10-13T00:06:07.858Z,23.60
2022-10-13T00:09:09.718Z,21.27
2022-10-13T00:12:11.322Z,20.15
2022-10-13T00:15:13.375Z,18.42
2022-10-13T00:18:16.068Z,17.30
2022-10-13T00:21:23.117Z,18.67
2022-10-13T00:24:24.871Z,19.40
2022-10-13T00:27:26.858Z,16.95
2022-10-13T00:30:28.446Z,20.73
2022-10-13T00:33:30.002Z,19.45
2022-10-13T00:36:33.024Z,21.12
2022-10-13T00:39:36.156Z,17.70
2022-10-13T00:42:41.693Z,20.27
2022-10-13T00:45:43.686Z,20.83
2022-10-13T00:48:46.259Z,17.45
2022-10-13T00:51:50.533Z,20.12
2022-10-13T00:54:53.230Z,20.42
2022-10-13T00:57:56.265Z,19.50
2022-10-13T01:00:59.594Z,27.35
2022-10-13T01:04:01.560Z,21.85
2022-10-13T01:07:04.445Z,22.73
2022-10-13T01:10:07.089Z,20.35
2022-10-13T01:13:31.177Z,21.95
2022-10-13T01:16:54.424Z,26.12
2022-10-13T01:20:29.339Z,23.77
2022-10-13T01:23:59.440Z,21.87
2022-10-13T01:27:19.777Z,21.27
2022-10-13T01:30:22.988Z,27.17
2022-10-13T01:33:42.170Z,26.55
2022-10-13T01:36:55.393Z,20.25
2022-10-13T01:40:06.740Z,21.17
2022-10-13T01:43:21.044Z,20.50
2022-10-13T01:46:29.560Z,22.23
2022-10-13T01:49:34.903Z,19.55
2022-10-13T01:52:39.391Z,21.50
2022-10-13T01:56:00.562Z,19.37
2022-10-13T01:59:07.851Z,18.92
2022-10-13T02:02:34.525Z,21.25
2022-10-13T02:05:56.008Z,25.37
2022-10-13T02:09:27.965Z,27.55
2022-10-13T02:12:39.822Z,37.70
2022-10-13T02:15:46.383Z,27.27
2022-10-13T02:18:48.418Z,33.43
2022-10-13T02:21:52.000Z,26.30
2022-10-13T02:24:53.952Z,25.90
2022-10-13T02:27:59.989Z,22.05
2022-10-13T02:31:02.534Z,24.63
2022-10-13T02:34:05.053Z,20.90
2022-10-13T02:37:07.029Z,23.92
2022-10-13T02:40:09.458Z,20.15
2022-10-13T02:43:11.030Z,22.35
2022-10-13T02:46:13.117Z,19.12
2022-10-13T02:49:14.931Z,22.27
2022-10-13T02:52:17.120Z,20.70
2022-10-13T02:55:19.122Z,20.30
2022-10-13T02:58:21.176Z,22.62
2022-10-13T03:01:23.060Z,22.95
2022-10-13T03:04:24.922Z,20.40
2022-10-13T03:07:26.805Z,23.62
2022-10-13T03:10:29.552Z,32.50
2022-10-13T03:13:32.058Z,36.38
2022-10-13T03:16:34.112Z,33.45
2022-10-13T03:19:35.719Z,32.13
2022-10-13T03:22:37.759Z,35.30
2022-10-13T03:25:39.325Z,26.90
2022-10-13T03:28:41.291Z,27.98
2022-10-13T03:31:43.236Z,34.42
2022-10-13T03:34:45.407Z,24.52
2022-10-13T03:37:46.978Z,23.15
2022-10-13T03:40:48.687Z,24.23
2022-10-13T03:43:50.688Z,27.52
2022-10-13T03:46:52.260Z,25.17
2022-10-13T03:49:55.261Z,25.50
2022-10-13T03:52:57.179Z,27.10
2022-10-13T03:55:59.356Z,22.70
2022-10-13T03:59:01.729Z,20.65
2022-10-13T04:02:03.499Z,20.60
2022-10-13T04:05:05.775Z,20.92
2022-10-13T04:08:07.646Z,21.48
2022-10-13T04:11:12.508Z,22.85
2022-10-13T04:14:14.079Z,17.48
2022-10-13T04:17:15.638Z,19.67
2022-10-13T04:20:17.710Z,27.50
2022-10-13T04:23:19.400Z,18.70
2022-10-13T04:26:23.514Z,17.12
2022-10-13T04:29:25.443Z,15.25
2022-10-13T04:32:27.910Z,19.10
2022-10-13T04:35:29.918Z,22.37
2022-10-13T04:38:31.584Z,21.23
2022-10-13T04:41:33.505Z,21.98
2022-10-13T04:44:35.129Z,17.55
2022-10-13T04:47:39.797Z,19.23
2022-10-13T04:50:41.776Z,21.60
2022-10-13T04:53:43.493Z,25.02
2022-10-13T04:56:46.495Z,18.85
2022-10-13T04:59:48.112Z,24.30
2022-10-13T05:02:50.359Z,16.67
2022-10-13T05:05:53.230Z,19.05
2022-10-13T05:08:56.117Z,20.20
2022-10-13T05:11:57.775Z,18.33
2022-10-13T05:14:59.845Z,19.52
2022-10-13T05:18:01.587Z,23.27
2022-10-13T05:21:11.239Z,19.60
2022-10-13T05:24:14.062Z,30.62
2022-10-13T05:27:15.781Z,32.25
2022-10-13T05:30:17.774Z,24.95
2022-10-13T05:33:19.461Z,20.70
2022-10-13T05:36:34.853Z,19.02
2022-10-13T05:39:36.752Z,21.05
2022-10-13T05:42:38.644Z,26.37
2022-10-13T05:45:40.879Z,26.92
2022-10-13T05:48:42.940Z,23.90
2022-10-13T05:51:49.193Z,26.10
2022-10-13T05:54:55.598Z,28.23
2022-10-13T05:57:57.225Z,26.48
2022-10-13T06:00:59.445Z,21.60
2022-10-13T06:04:07.727Z,25.88
2022-10-13T06:07:10.255Z,24.52
2022-10-13T06:10:12.578Z,22.85
2022-10-13T06:13:14.201Z,32.90
2022-10-13T06:16:15.823Z,29.77
2022-10-13T06:19:17.825Z,20.85
2022-10-13T06:22:19.615Z,25.35
2022-10-13T06:25:21.761Z,37.47
2022-10-13T06:28:23.636Z,20.05
2022-10-13T06:31:25.306Z,15.48
2022-10-13T06:34:27.232Z,22.27
2022-10-13T06:37:28.852Z,16.10
2022-10-13T06:40:30.853Z,14.00
2022-10-13T06:43:39.965Z,12.40
2022-10-13T06:46:42.204Z,17.33
2022-10-13T06:49:44.201Z,14.43
2022-10-13T06:52:45.798Z,19.42
2022-10-13T06:55:52.206Z,15.25
2022-10-13T06:58:54.527Z,15.15
2022-10-13T07:01:56.175Z,15.98
2022-10-13T07:04:58.118Z,10.45
2022-10-13T07:07:59.799Z,13.68
2022-10-13T07:11:15.350Z,13.95
2022-10-13T07:14:17.674Z,16.92
2022-10-13T07:17:19.563Z,15.57
2022-10-13T07:20:22.601Z,11.48
2022-10-13T07:23:24.792Z,14.40
2022-10-13T07:26:26.428Z,18.60
2022-10-13T07:29:28.134Z,10.38
2022-10-13T07:32:31.999Z,14.82
2022-10-13T07:35:33.710Z,15.40
2022-10-13T07:38:35.483Z,11.38
2022-10-13T07:41:37.904Z,19.77
2022-10-13T07:44:39.928Z,15.35
2022-10-13T07:47:41.652Z,20.60
2022-10-13T07:50:43.601Z,12.10
2022-10-13T07:53:46.959Z,8.40
2022-10-13T07:56:52.646Z,13.50
2022-10-13T07:59:54.280Z,12.65
2022-10-13T08:02:56.373Z,8.38
2022-10-13T08:06:02.581Z,11.15
2022-10-13T08:09:05.011Z,12.35
2022-10-13T08:12:06.825Z,8.88
2022-10-13T08:15:09.338Z,12.20
2022-10-13T08:18:13.280Z,11.02
2022-10-13T08:24:39.459Z,11.85
2022-10-13T08:27:51.004Z,7.10
2022-10-13T08:30:54.187Z,10.82
2022-10-13T08:33:56.394Z,18.90
2022-10-13T08:36:59.777Z,12.30
2022-10-13T08:40:01.602Z,13.02
2022-10-13T08:43:07.583Z,14.23
2022-10-13T08:46:10.409Z,7.10
2022-10-13T08:49:14.929Z,9.18
2022-10-13T08:52:27.323Z,9.82
2022-10-13T08:55:31.845Z,8.77
2022-10-13T08:58:35.856Z,11.43
2022-10-13T09:01:37.919Z,9.35
2022-10-13T09:04:43.540Z,9.27
2022-10-13T09:07:46.492Z,14.95
2022-10-13T09:10:52.343Z,11.12
2022-10-13T09:13:56.115Z,10.73
2022-10-13T09:17:24.177Z,7.65
2022-10-13T09:23:29.343Z,8.48
2022-10-13T09:26:36.949Z,9.48
2022-10-13T09:29:40.037Z,7.62
2022-10-13T09:32:41.745Z,9.80
2022-10-13T09:36:06.515Z,6.18
2022-10-13T09:39:14.124Z,6.07
2022-10-13T09:42:30.592Z,12.40
2022-10-13T09:45:32.695Z,5.93
2022-10-13T09:48:38.031Z,7.22
2022-10-13T09:51:45.366Z,5.55
2022-10-13T09:54:52.898Z,11.90
2022-10-13T09:57:57.048Z,12.15
2022-10-13T10:01:00.134Z,9.93
2022-10-13T10:04:06.930Z,6.07
2022-10-13T10:07:18.335Z,9.80
2022-10-13T10:10:35.839Z,7.75
2022-10-13T10:13:37.799Z,9.95
2022-10-13T10:16:44.880Z,10.25
2022-10-13T10:19:52.690Z,7.18
2022-10-13T10:23:03.688Z,6.50
2022-10-13T10:26:22.238Z,16.98
2022-10-13T10:29:46.966Z,7.10
2022-10-13T10:33:11.683Z,13.48
2022-10-13T10:36:23.925Z,9.15
2022-10-13T10:39:38.777Z,10.77
2022-10-13T10:43:01.909Z,9.02
2022-10-13T10:46:15.384Z,8.20
2022-10-13T10:49:29.444Z,17.02
2022-10-13T10:52:47.818Z,8.00
2022-10-13T10:56:03.193Z,9.30
2022-10-13T10:59:13.831Z,7.00
2022-10-13T11:02:33.716Z,9.60
2022-10-13T11:05:57.378Z,16.40
2022-10-13T11:08:58.954Z,16.08
2022-10-13T11:12:01.172Z,9.15
2022-10-13T11:15:06.174Z,13.55
2022-10-13T11:18:45.487Z,7.25
2022-10-13T11:22:12.471Z,13.25
2022-10-13T11:25:40.668Z,9.00
2022-10-13T11:28:42.769Z,25.20
2022-10-13T11:31:51.234Z,18.23
2022-10-13T11:35:19.894Z,18.67
2022-10-13T11:38:37.792Z,17.50
2022-10-13T11:41:59.763Z,14.10
2022-10-13T11:45:21.494Z,7.75
2022-10-13T11:48:50.235Z,10.52
2022-10-13T11:52:22.022Z,11.10
2022-10-13T11:55:32.362Z,14.07
2022-10-13T11:58:34.033Z,15.32
2022-10-13T12:01:35.944Z,10.15
2022-10-13T12:04:42.785Z,12.43
2022-10-13T12:07:50.295Z,17.60
2022-10-13T12:10:56.431Z,10.45
2022-10-13T12:14:00.550Z,19.98
2022-10-13T12:17:02.550Z,10.43
2022-10-13T12:20:21.816Z,22.30
2022-10-13T12:23:24.191Z,10.13
2022-10-13T12:26:26.455Z,16.08
2022-10-13T12:29:33.475Z,13.68
2022-10-13T12:32:38.142Z,14.45
2022-10-13T12:35:39.738Z,14.63
2022-10-13T12:38:48.798Z,16.17
2022-10-13T12:41:51.471Z,12.73
2022-10-13T12:44:53.515Z,18.70
2022-10-13T12:47:55.733Z,13.62
2022-10-13T12:51:09.255Z,13.23
2022-10-13T12:54:32.364Z,19.08
2022-10-13T12:57:38.669Z,16.87
2022-10-13T13:00:41.329Z,11.37
2022-10-13T13:03:43.944Z,15.65
2022-10-13T13:06:54.969Z,15.50
2022-10-13T13:10:18.063Z,12.18
2022-10-13T13:13:22.951Z,12.88
2022-10-13T13:16:24.734Z,19.05
2022-10-13T13:19:26.527Z,19.60
2022-10-13T13:22:28.410Z,24.63
2022-10-13T13:25:30.294Z,12.32
2022-10-13T13:28:32.870Z,9.82
2022-10-13T13:31:34.455Z,12.88
2022-10-13T13:34:36.385Z,16.60
2022-10-13T13:37:44.637Z,9.77
2022-10-13T13:40:46.541Z,10.82
2022-10-13T13:43:48.859Z,10.82
2022-10-13T13:46:50.443Z,10.55
2022-10-13T13:49:56.534Z,10.63
2022-10-13T13:52:58.813Z,11.60
2022-10-13T13:56:00.458Z,15.77
2022-10-13T13:59:02.021Z,13.95
2022-10-13T14:02:04.325Z,11.52
2022-10-13T14:05:07.633Z,11.07
2022-10-13T14:08:09.229Z,15.10
2022-10-13T14:11:11.160Z,11.98
2022-10-13T14:14:13.387Z,7.68
2022-10-13T14:17:15.021Z,8.57
2022-10-13T14:20:16.924Z,21.87
2022-10-13T14:23:18.990Z,20.25
2022-10-13T14:26:20.925Z,15.80
2022-10-13T14:29:22.663Z,21.80
2022-10-13T14:32:24.249Z,8.25
2022-10-13T14:35:26.381Z,7.78
2022-10-13T14:38:28.354Z,10.15
2022-10-13T14:41:30.165Z,12.25
2022-10-13T14:44:32.001Z,11.55
2022-10-13T14:47:33.730Z,34.85
2022-10-13T14:50:37.904Z,20.00
2022-10-13T14:53:42.252Z,18.33
2022-10-13T14:56:45.084Z,17.95
2022-10-13T14:59:47.009Z,24.17
2022-10-13T15:02:48.890Z,10.60
2022-10-13T15:05:50.511Z,17.80
2022-10-13T15:08:52.728Z,11.77
2022-10-13T15:11:54.317Z,14.75
2022-10-13T15:14:56.049Z,14.73
2022-10-13T15:17:57.654Z,14.60
2022-10-13T15:21:00.217Z,14.38
2022-10-13T15:24:01.937Z,16.40
2022-10-13T15:27:03.864Z,13.38
2022-10-13T15:30:07.679Z,19.60
2022-10-13T15:33:09.420Z,23.77
2022-10-13T15:36:11.101Z,25.52
2022-10-13T15:39:12.674Z,28.83
2022-10-13T15:42:14.413Z,37.97
2022-10-13T15:45:16.371Z,40.92
2022-10-13T15:48:17.930Z,41.53
2022-10-13T15:51:24.146Z,42.50
2022-10-13T15:54:25.729Z,39.85
2022-10-13T15:57:27.475Z,25.52
2022-10-13T16:00:29.146Z,40.63
2022-10-13T16:03:31.018Z,30.45
2022-10-13T16:06:33.813Z,35.63
2022-10-13T16:09:35.754Z,35.15
2022-10-13T16:12:37.749Z,28.00
2022-10-13T16:15:39.610Z,24.95
2022-10-13T16:18:41.743Z,34.45
2022-10-13T16:21:43.387Z,33.42
2022-10-13T16:24:45.025Z,39.03
2022-10-13T16:27:46.902Z,45.28
2022-10-13T16:30:48.531Z,57.67
2022-10-13T16:33:50.086Z,62.10
2022-10-13T16:36:51.959Z,68.15
2022-10-13T16:39:53.627Z,69.62
2022-10-13T16:42:55.220Z,71.57
2022-10-13T16:46:02.170Z,65.65
2022-10-13T16:49:03.987Z,61.63
2022-10-13T16:52:05.564Z,58.65
2022-10-13T16:55:08.477Z,64.85
2022-10-13T16:58:10.757Z,59.38
2022-10-13T17:01:13.057Z,75.43
2022-10-13T17:04:17.326Z,87.50
2022-10-13T17:07:23.189Z,79.12
2022-10-13T17:10:25.628Z,83.97
2022-10-13T17:13:28.001Z,93.43
2022-10-13T17:16:30.690Z,89.95
2022-10-13T17:19:33.013Z,62.15
2022-10-13T17:22:34.699Z,56.37
2022-10-13T17:25:36.519Z,50.17
2022-10-13T17:28:41.262Z,57.42
2022-10-13T17:31:44.395Z,55.17
2022-10-13T17:34:46.694Z,62.55
2022-10-13T17:37:50.156Z,69.75
2022-10-13T17:40:54.985Z,72.95
2022-10-13T17:44:01.255Z,80.45
2022-10-13T17:47:03.915Z,82.25
2022-10-13T17:50:06.807Z,87.43
2022-10-13T17:53:09.183Z,84.62
2022-10-13T17:56:14.256Z,98.82
2022-10-13T17:59:18.074Z,92.53
2022-10-13T18:02:22.052Z,92.45
2022-10-13T18:05:23.743Z,90.10
2022-10-13T18:08:26.007Z,76.40
2022-10-13T18:11:27.787Z,80.68
2022-10-13T18:14:29.849Z,80.05
2022-10-13T18:17:32.068Z,75.53
2022-10-13T18:20:38.581Z,65.20
2022-10-13T18:23:41.681Z,69.87
2022-10-13T18:26:44.072Z,70.50
2022-10-13T18:29:46.585Z,75.37
2022-10-13T18:32:49.043Z,78.87
2022-10-13T18:35:51.271Z,92.90
2022-10-13T18:38:55.236Z,78.68
2022-10-13T18:41:58.009Z,78.57
2022-10-13T18:45:01.161Z,83.50
2022-10-13T18:48:04.635Z,78.50
2022-10-13T18:51:10.104Z,69.45
2022-10-13T18:54:12.944Z,69.45
2022-10-13T18:57:15.425Z,78.55
2022-10-13T19:00:18.868Z,75.18
2022-10-13T19:03:21.420Z,74.43
2022-10-13T19:06:27.446Z,72.22
2022-10-13T19:09:30.876Z,75.87
2022-10-13T19:12:34.066Z,72.53
2022-10-13T19:15:36.412Z,73.05
2022-10-13T19:18:38.703Z,78.10
2022-10-13T19:21:42.174Z,72.93
2022-10-13T19:24:44.745Z,66.72
2022-10-13T19:27:47.377Z,71.68
2022-10-13T19:30:49.405Z,68.43
2022-10-13T19:33:53.244Z,63.95
2022-10-13T19:36:59.630Z,72.55
2022-10-13T19:40:03.736Z,62.38
2022-10-13T19:43:06.260Z,67.68
2022-10-13T19:46:08.996Z,62.58
2022-10-13T19:49:13.377Z,62.97
2022-10-13T19:52:15.594Z,69.12
2022-10-13T19:55:18.375Z,58.00
2022-10-13T19:58:20.558Z,59.10
2022-10-13T20:01:23.737Z,63.47
2022-10-13T20:04:25.908Z,81.75
2022-10-13T20:07:27.715Z,86.20
2022-10-13T20:10:29.861Z,73.55
2022-10-13T20:13:31.781Z,79.25
2022-10-13T20:16:33.907Z,76.95
2022-10-13T20:19:35.515Z,76.57
2022-10-13T20:22:37.535Z,71.97
2022-10-13T20:25:39.227Z,77.18
2022-10-13T20:28:43.630Z,60.00
2022-10-13T20:31:46.578Z,56.90
2022-10-13T20:34:48.201Z,66.70
2022-10-13T20:37:50.119Z,71.65
2022-10-13T20:40:51.749Z,101.45
2022-10-13T20:43:55.659Z,107.43
2022-10-13T20:46:57.271Z,86.97
2022-10-13T20:49:59.125Z,97.15
2022-10-13T20:53:00.788Z,112.25
2022-10-13T20:56:04.326Z,111.85
2022-10-13T20:59:08.898Z,92.28
2022-10-13T21:02:13.124Z,92.53
2022-10-13T21:05:15.724Z,96.90
2022-10-13T21:08:18.162Z,87.35
2022-10-13T21:11:21.846Z,78.53
2022-10-13T21:14:23.419Z,73.75
2022-10-13T21:17:24.978Z,71.95
2022-10-13T21:20:26.705Z,82.40
2022-10-13T21:23:28.324Z,74.47
2022-10-13T21:26:31.942Z,67.55
2022-10-13T21:29:33.920Z,52.83
2022-10-13T21:32:35.535Z,48.83
2022-10-13T21:35:37.188Z,40.70
2022-10-13T21:38:39.909Z,36.85
2022-10-13T21:41:41.501Z,34.17
2022-10-13T21:44:43.294Z,34.22
2022-10-13T21:47:44.910Z,38.03
2022-10-13T21:50:46.714Z,40.15
2022-10-13T21:53:54.523Z,35.13
2022-10-13T21:56:56.466Z,35.75
2022-10-13T21:59:58.028Z,35.10
2022-10-13T22:02:59.617Z,38.17
2022-10-13T22:06:12.235Z,36.13
2022-10-13T22:09:16.389Z,42.13
2022-10-13T22:12:18.366Z,39.40
2022-10-13T22:15:19.925Z,42.70
2022-10-13T22:18:21.716Z,34.47
2022-10-13T22:21:30.108Z,41.33
2022-10-13T22:24:31.923Z,40.28
2022-10-13T22:27:33.523Z,38.20
2022-10-13T22:30:39.403Z,42.53
2022-10-13T22:33:43.116Z,40.75
2022-10-13T22:36:45.559Z,42.95
2022-10-13T22:39:47.526Z,46.05
2022-10-13T22:42:49.780Z,38.58
2022-10-13T22:45:52.246Z,39.60
2022-10-13T22:48:54.563Z,43.03
2022-10-13T22:51:56.321Z,41.80
2022-10-13T22:54:58.432Z,47.83
2022-10-13T22:58:00.044Z,43.53
2022-10-13T23:01:10.297Z,43.22
2022-10-13T23:04:12.337Z,43.70
2022-10-13T23:07:13.880Z,41.13
2022-10-13T23:10:15.454Z,47.92
2022-10-13T23:13:17.467Z,43.17
2022-10-13T23:16:22.049Z,46.13
2022-10-13T23:19:23.878Z,46.97
2022-10-13T23:22:25.477Z,40.78
2022-10-13T23:25:27.479Z,37.85
2022-10-13T23:28:30.868Z,44.00
2022-10-13T23:31:33.162Z,39.80
2022-10-13T23:34:34.760Z,47.65
2022-10-13T23:37:36.597Z,39.38
2022-10-13T23:40:38.190Z,36.15
2022-10-13T23:43:41.056Z,45.17
2022-10-13T23:46:42.816Z,41.22
2022-10-13T23:49:44.383Z,37.92
2022-10-13T23:52:46.315Z,48.87
2022-10-13T23:55:47.870Z,42.13
2022-10-13T23:58:49.958Z,40.50
